Terminal Aerodrome Forecast
Issued by NWS

Home | Current Version | Previous Version | Text Only | Print | Product List | Glossary On
Versions: 1 2 3 4 5 6 7 8 9 10 11 12 13 14 15 16 17 18 19 20 21 22 23 24 25 26 27 28
000
FTAK31 PANC 150826 AAA
TAFASN
TAF AMD
PASN 150826Z 1508/1606 12025G35KT 3SM -RA BR OVC006
      TEMPO 1508/1512 2SM -SN BR SCT003 OVC006
     FM151400 09015KT 3SM -RA BR OVC003
     FM151700 23012KT 5SM -SHSN OVC012=

USA.gov is the U.S. government's official web portal to all federal, state and local government web resources and services.